الصفحة الرئيسية
METAR-TAF:

METAR-TAF

مطار :

مطار أثينا الدولي

أثينا, اليونان

دائرة عرض: 37-56N, خط طول: 023-56E, ارتفاع: 94 متر

مراقبة الطقس الحالي

تاريخ ووقت الإصدار 37 دقيقة قبل الساعة 06:50UTC
ريح 12 عقدة من الشمال, الاتجاه يتراوح بين الشمال/الشمال الغربي و الشمال/الشمال الشرقي
درجة الحرارة 24°درجة مئوية
الرطوبة 61%
ضغط 1014 hPa
الرؤية 10 كم أو أكثر
غيوم قليلة على ارتفاع 3000 قدم

METAR: LGAV 240650Z 36012KT 330V030 9999 FEW030 24/16 Q1014 NOSIG

زمن: 10:27 (07:27 UTC)

توقعات

تاريخ ووقت الإصدار 2ساعات و 27 دقيقة قبل الساعة 05:00UTC
التوقعات صالحة من24 الساعة 06 UTC إلى 25 الساعة 06 UTC
ريح 12 عقدة من الشمال/الشمال الشرقي
الرؤية 10 كم أو أكثر
غيوم قليلة على ارتفاع 3000 قدم
مؤقت
من 24 الساعة 09 UTC إلى 24 الساعة 15 UTC
ريح 15 عقدة من الشمال الشرقي تتزايد حتى 25 عقدة
نظرية الاحتمالات 30% :
مؤقت
من 24 الساعة 10 UTC إلى 24 الساعة 15 UTC
غيوم قليلة على ارتفاع 1800 قدم, مزنة ركامية.
غيوم متفرقة على ارتفاع 7000 قدم

TAF: LGAV 240500Z 2406/2506 02012KT 9999 FEW030 TEMPO 2409/2415 04015G25KT PROB30 TEMPO 2410/2415 FEW018CB SCT070

أرصاد الطقس والتوقعات من أكثر من 4000 مطار (تقارير الطقس للمطار METAR والتنبؤ بالطقس بالمطارTAF).

المحطات المتاحة هي النقط الصفراء والحمراء على الخريطة.

حرك المؤشر فوق النقطة لمعرفة اسم المحطة.

ثم انقر لمعرفة أرصاد وتوقعات الطقس.

لتغيير الخارطة: اضغط على الأزرار الخضراء مع رمز الصليب الأسود للتكبير. على الزر الأخضر مع شرطة للتصغير، أو على الأسهم الخضراء للخرائط المجاورة.


METAR-TAF: